createdAt,value
2018-05-07T00:00:19.211Z,2.30
2018-05-07T00:05:23.288Z,2.23
2018-05-07T00:10:25.963Z,2.53
2018-05-07T00:15:28.963Z,2.30
2018-05-07T00:20:31.536Z,2.20
2018-05-07T00:25:34.975Z,2.30
2018-05-07T00:30:38.393Z,2.50
2018-05-07T00:35:41.708Z,2.20
2018-05-07T00:40:45.027Z,2.33
2018-05-07T00:45:48.395Z,2.70
2018-05-07T00:50:50.949Z,2.40
2018-05-07T00:55:53.511Z,2.13
2018-05-07T01:00:57.293Z,2.30
2018-05-07T01:05:59.865Z,2.80
2018-05-07T01:11:02.422Z,2.63
2018-05-07T01:16:07.562Z,2.73
2018-05-07T01:21:11.508Z,2.53
2018-05-07T01:26:14.088Z,2.40
2018-05-07T01:31:16.641Z,2.50
2018-05-07T01:36:20.875Z,2.70
2018-05-07T01:41:23.776Z,2.80
2018-05-07T01:46:27.088Z,2.60
2018-05-07T01:51:30.883Z,2.60
2018-05-07T01:56:33.454Z,2.73
2018-05-07T02:01:36.635Z,3.10
2018-05-07T02:06:40.240Z,2.67
2018-05-07T02:11:43.547Z,2.40
2018-05-07T02:16:46.774Z,2.37
2018-05-07T02:21:53.136Z,2.90
2018-05-07T02:26:55.696Z,2.77
2018-05-07T02:32:01.119Z,2.33
2018-05-07T02:37:04.240Z,2.60
2018-05-07T02:42:07.568Z,2.87
2018-05-07T02:47:10.249Z,2.70
2018-05-07T02:52:13.587Z,2.63
2018-05-07T02:57:17.440Z,2.63
2018-05-07T03:02:20.021Z,2.50
2018-05-07T03:07:23.483Z,2.77
2018-05-07T03:12:41.017Z,2.73
2018-05-07T03:17:43.659Z,2.83
2018-05-07T03:22:46.989Z,2.73
2018-05-07T03:27:49.557Z,2.80
2018-05-07T03:32:52.144Z,2.80
2018-05-07T03:37:54.695Z,2.70
2018-05-07T03:42:57.253Z,2.47
2018-05-07T03:48:03.275Z,2.90
2018-05-07T03:53:05.836Z,2.67
2018-05-07T03:58:09.151Z,2.97
2018-05-07T04:03:13.729Z,2.87
2018-05-07T04:08:17.847Z,2.63
2018-05-07T04:13:23.844Z,3.00
2018-05-07T04:18:39.047Z,3.10
2018-05-07T04:23:53.724Z,3.20
2018-05-07T04:28:56.905Z,2.70
2018-05-07T04:34:00.280Z,2.67
2018-05-07T04:39:02.950Z,3.07
2018-05-07T04:44:06.182Z,3.20
2018-05-07T04:49:08.940Z,2.90
2018-05-07T04:54:12.923Z,3.03
2018-05-07T04:59:15.469Z,2.80
2018-05-07T05:04:19.917Z,2.97
2018-05-07T05:09:22.476Z,2.40
2018-05-07T05:14:25.823Z,3.10
2018-05-07T05:19:29.335Z,2.83
2018-05-07T05:24:32.681Z,3.30
2018-05-07T05:29:35.686Z,2.73
2018-05-07T05:34:38.821Z,3.27
2018-05-07T05:39:41.845Z,3.13
2018-05-07T05:44:45.972Z,3.43
2018-05-07T05:49:48.545Z,5.60
2018-05-07T05:54:52.724Z,3.50
2018-05-07T05:59:55.279Z,3.07
2018-05-07T06:04:57.921Z,3.80
2018-05-07T06:10:00.788Z,3.20
2018-05-07T06:15:03.969Z,2.97
2018-05-07T06:20:07.110Z,3.00
2018-05-07T06:25:10.244Z,3.17
2018-05-07T06:30:12.823Z,3.60
2018-05-07T06:35:15.877Z,3.23
2018-05-07T06:40:18.712Z,3.40
2018-05-07T06:45:22.522Z,3.67
2018-05-07T06:50:26.188Z,3.10
2018-05-07T06:55:30.191Z,3.03
2018-05-07T07:00:34.195Z,7.73
2018-05-07T07:05:36.760Z,2.93
2018-05-07T07:10:41.943Z,3.13
2018-05-07T07:15:45.400Z,3.70
2018-05-07T07:20:48.645Z,3.53
2018-05-07T07:25:51.956Z,3.73
2018-05-07T07:30:54.811Z,3.20
2018-05-07T07:35:59.268Z,3.30
2018-05-07T07:41:03.056Z,3.27
2018-05-07T07:46:06.484Z,5.70
2018-05-07T07:51:09.035Z,3.57
2018-05-07T07:56:11.603Z,3.60
2018-05-07T08:01:14.918Z,3.50
2018-05-07T08:06:19.845Z,3.43
2018-05-07T08:11:24.297Z,4.13
2018-05-07T08:16:27.328Z,3.67
2018-05-07T08:21:29.912Z,3.73
2018-05-07T08:26:33.250Z,4.30
2018-05-07T08:31:35.844Z,3.90
2018-05-07T08:36:38.432Z,4.13
2018-05-07T08:41:42.333Z,4.30
2018-05-07T08:46:44.897Z,4.47
2018-05-07T08:51:49.946Z,4.00
2018-05-07T08:56:52.508Z,3.77
2018-05-07T09:01:56.283Z,3.47
2018-05-07T09:06:58.858Z,4.63
2018-05-07T09:12:08.411Z,3.80
2018-05-07T09:17:11.300Z,4.43
2018-05-07T09:22:15.015Z,3.90
2018-05-07T09:27:18.349Z,4.17
2018-05-07T09:32:21.230Z,4.50
2018-05-07T09:37:23.964Z,3.80
2018-05-07T09:42:26.845Z,4.63
2018-05-07T09:47:30.633Z,3.53
2018-05-07T09:52:33.211Z,3.17
2018-05-07T09:57:35.775Z,3.30
2018-05-07T10:02:39.125Z,3.23
2018-05-07T10:07:41.712Z,4.13
2018-05-07T10:12:44.284Z,4.97
2018-05-07T10:17:47.635Z,4.17
2018-05-07T10:22:50.191Z,4.50
2018-05-07T10:27:53.524Z,3.53
2018-05-07T10:32:56.108Z,3.83
2018-05-07T10:37:59.425Z,3.70
2018-05-07T10:43:02.760Z,3.53
2018-05-07T10:48:05.317Z,5.23
2018-05-07T10:53:07.866Z,3.67
2018-05-07T10:58:10.437Z,3.73
2018-05-07T11:03:13.763Z,3.53
2018-05-07T11:08:16.341Z,4.13
2018-05-07T11:13:19.669Z,3.60
2018-05-07T11:18:22.993Z,3.40
2018-05-07T11:23:25.675Z,3.37
2018-05-07T11:28:29.008Z,3.40
2018-05-07T11:33:31.592Z,3.77
2018-05-07T11:38:34.927Z,3.73
2018-05-07T11:43:37.492Z,3.90
2018-05-07T11:48:40.064Z,3.80
2018-05-07T11:53:42.659Z,4.30
2018-05-07T11:58:45.236Z,3.80
2018-05-07T12:03:47.808Z,3.23
2018-05-07T12:08:50.359Z,3.43
2018-05-07T12:13:52.920Z,3.40
2018-05-07T12:18:55.490Z,3.33
2018-05-07T12:23:58.847Z,3.50
2018-05-07T12:29:01.435Z,3.70
2018-05-07T12:34:04.014Z,3.67
2018-05-07T12:39:06.603Z,4.80
2018-05-07T12:44:09.927Z,3.50
2018-05-07T12:49:12.502Z,3.17
2018-05-07T12:54:15.928Z,3.90
2018-05-07T12:59:19.277Z,3.60
2018-05-07T13:04:21.849Z,3.97
2018-05-07T13:09:25.223Z,3.90
2018-05-07T13:14:27.808Z,3.30
2018-05-07T13:19:30.421Z,3.50
2018-05-07T13:24:33.019Z,2.97
2018-05-07T13:29:35.580Z,3.77
2018-05-07T13:34:38.145Z,3.83
2018-05-07T13:39:41.931Z,3.23
2018-05-07T13:44:44.505Z,3.77
2018-05-07T13:49:47.380Z,3.80
2018-05-07T13:54:51.758Z,3.70
2018-05-07T13:59:54.333Z,3.80
2018-05-07T14:04:56.920Z,3.40
2018-05-07T14:10:00.333Z,3.40
2018-05-07T14:15:03.985Z,3.33
2018-05-07T14:20:06.564Z,3.60
2018-05-07T14:25:09.150Z,4.00
2018-05-07T14:30:11.744Z,3.53
2018-05-07T14:35:15.087Z,3.50
2018-05-07T14:40:17.663Z,3.37
2018-05-07T14:45:20.581Z,3.97
2018-05-07T14:50:23.204Z,3.73
2018-05-07T14:55:26.513Z,3.90
2018-05-07T15:00:29.092Z,3.83
2018-05-07T15:05:31.650Z,4.03
2018-05-07T15:10:34.243Z,4.17
2018-05-07T15:15:37.829Z,3.87
2018-05-07T15:20:40.427Z,4.07
2018-05-07T15:25:43.668Z,3.23
2018-05-07T15:30:46.880Z,3.57
2018-05-07T15:35:49.593Z,4.47
2018-05-07T15:40:52.755Z,3.97
2018-05-07T15:45:55.339Z,3.63
2018-05-07T15:50:58.651Z,4.73
2018-05-07T15:56:03.100Z,3.77
2018-05-07T16:01:05.675Z,3.83
2018-05-07T16:06:09.886Z,3.70
2018-05-07T16:11:16.154Z,3.90
2018-05-07T16:16:18.765Z,4.17
2018-05-07T16:21:22.126Z,4.40
2018-05-07T16:26:24.520Z,4.23
2018-05-07T16:31:27.109Z,3.70
2018-05-07T16:36:30.752Z,3.87
2018-05-07T16:41:33.367Z,4.50
2018-05-07T16:46:35.959Z,4.37
2018-05-07T16:51:39.953Z,4.80
2018-05-07T16:56:43.284Z,4.93
2018-05-07T17:01:46.922Z,4.00
2018-05-07T17:06:49.516Z,6.17
2018-05-07T17:11:52.081Z,5.00
2018-05-07T17:16:55.429Z,4.57
2018-05-07T17:21:57.996Z,4.67
2018-05-07T17:27:00.563Z,6.00
2018-05-07T17:37:20.437Z,4.67
2018-05-07T17:42:30.851Z,4.57
2018-05-07T17:53:12.780Z,4.47
2018-05-07T17:58:15.338Z,4.57
2018-05-07T18:03:18.072Z,5.37
2018-05-07T18:08:20.641Z,5.20
2018-05-07T18:13:23.442Z,5.23
2018-05-07T18:18:26.013Z,5.77
2018-05-07T18:23:28.574Z,6.00
2018-05-07T18:28:31.136Z,5.13
2018-05-07T18:33:33.723Z,5.40
2018-05-07T18:38:36.293Z,6.00
2018-05-07T18:43:41.372Z,6.10
2018-05-07T18:48:44.999Z,5.50
2018-05-07T18:53:47.576Z,5.10
2018-05-07T18:58:50.151Z,5.57
2018-05-07T19:03:53.486Z,6.87
2018-05-07T19:08:56.076Z,5.57
2018-05-07T19:13:59.428Z,4.97
2018-05-07T19:19:01.993Z,4.77
2018-05-07T19:24:06.270Z,8.53
2018-05-07T19:29:08.830Z,6.20
2018-05-07T19:34:12.157Z,7.10
2018-05-07T19:39:14.741Z,5.90
2018-05-07T19:44:17.327Z,5.57
2018-05-07T19:49:21.598Z,5.20
2018-05-07T19:54:24.154Z,5.13
2018-05-07T19:59:27.497Z,5.00
2018-05-07T20:04:30.922Z,5.10
2018-05-07T20:09:34.938Z,5.00
2018-05-07T20:14:38.455Z,5.00
2018-05-07T20:19:41.027Z,5.13
2018-05-07T20:24:43.606Z,5.10
2018-05-07T20:29:46.247Z,5.20
2018-05-07T20:34:49.606Z,5.20
2018-05-07T20:39:52.211Z,5.40
2018-05-07T20:44:54.767Z,5.70
2018-05-07T20:49:58.096Z,5.60
2018-05-07T20:55:00.667Z,6.03
2018-05-07T21:00:04.015Z,5.57
2018-05-07T21:05:06.576Z,5.60
2018-05-07T21:10:09.145Z,5.30
2018-05-07T21:15:11.748Z,5.97
2018-05-07T21:20:14.942Z,6.80
2018-05-07T21:25:17.509Z,5.90
2018-05-07T21:30:20.067Z,6.00
2018-05-07T21:35:22.616Z,5.87
2018-05-07T21:40:25.194Z,6.00
2018-05-07T21:45:28.802Z,5.87
2018-05-07T21:50:32.136Z,5.13
2018-05-07T21:55:35.542Z,5.60
2018-05-07T22:00:38.122Z,5.47
2018-05-07T22:05:41.147Z,5.47
2018-05-07T22:10:43.725Z,5.43
2018-05-07T22:15:48.084Z,4.83
2018-05-07T22:20:50.662Z,4.70
2018-05-07T22:25:53.993Z,4.10
2018-05-07T22:30:57.343Z,4.23
2018-05-07T22:35:59.920Z,3.37
2018-05-07T22:41:02.476Z,4.93
2018-05-07T22:46:05.047Z,7.07
2018-05-07T22:51:07.619Z,6.97
2018-05-07T22:56:10.182Z,6.53
2018-05-07T23:01:13.056Z,6.93
2018-05-07T23:06:15.623Z,5.77
2018-05-07T23:11:18.191Z,5.13
2018-05-07T23:16:21.526Z,5.33
2018-05-07T23:21:24.868Z,4.90
2018-05-07T23:26:27.412Z,5.33
2018-05-07T23:31:29.990Z,5.03
2018-05-07T23:36:32.544Z,5.70
2018-05-07T23:41:35.122Z,4.37
2018-05-07T23:46:38.456Z,5.70
2018-05-07T23:51:42.075Z,4.60
2018-05-07T23:56:45.026Z,5.10
